Main page
METAR-TAF:

METAR-TAF

Airports :

Oil platform Norsk Hydro

Oseberg, Norway

latitude: 60-29-29N, longitude: 2-49-32E, elevation: 158 m

Current weather observation

The report was made 31 minutes ago, at 05:50 UTC
Wind 27 kt from the South/Southwest
Temperature 12°C
Humidity 100%
Pressure 1003 hPa
Visibility: 0100 m
light rain, fog

METAR: ENOA 190550Z 20027KT 0100 -RA FG VV002 12/12 Q1003 W///S6

Time: 08:21 (06:21 UTC)

Forecast

Forecast valid from 19 at 06 UTC to 20 at 06 UTC
Wind 22 kt from the South/Southwest
Visibility: 7000 m
Scattered clouds at a height of 500 ft
Broken clouds at a height of 1500 ft
light drizzle
Temporary
from 19 at 06 UTC to 20 at 06 UTC
Visibility: 2000 m
Overcast at a height of 400 ft
drizzle, rain, mist
Probability 30%
from 19 at 06 UTC to 20 at 06 UTC
Visibility: 0500 m
at a height of 200 ft
fog

TAF: ENOA 1906/2006 20022KT 7000 -DZ SCT005 BKN015 TEMPO 1906/2006 2000 DZRA BR OVC004 PROB30 1906/2006 0500 FG VV002

Weather observations and forecasts of more than 4000 airports (METAR and TAF reports).

The available stations are represented by yellow and red dots on the map.

Hover mouse over dot to see the name of the station.

Then click to see weather observations and forecasts.

To change the map : click on the green buttons with a black cross to zoom in, on the green button with a dash to zoom out, or on the green arrows for adjacent maps.


METAR-TAF: